Bodoc, Louisiana
Current Conditions -  °F | °C
As of 6:35 AM on Friday 19 Dec 2014 (Local Time) from KOPL Reporting Station
Light Rain Light Rain  
Wind Chill: 53°   Ceiling: 200
Heat Index: 53°   Visibility: 10mi
Dew Point: 52°   Wind: 5mph
Humidity: 98%   Direction: 20°NNE
Pressure: 30.11"   Gusts: NA
Location:  30.9227°N, 91.987°W
Report Text: KOPL 191235Z AUTO 02004KT 10SM -RA BKN002 BKN024 OVC085 12/11 A3011 RMK AO2 LTG DSNT NE P0003 T01150112
Loading
Personal Weather Stations






























Interactive Weather Map New forecast layout! Learn more

10-Day Weather Forecast

Advertisements
Track Severe Weather on mobile